sensor_id;sensor_type;location;lat;lon;timestamp;temperature;humidity
56861;DHT22;42744;51.094;3.490;2024-03-02T00:00:19;5.90;99.90
56861;DHT22;42744;51.094;3.490;2024-03-02T00:02:48;5.90;99.90
56861;DHT22;42744;51.094;3.490;2024-03-02T00:05:16;5.90;99.90
56861;DHT22;42744;51.094;3.490;2024-03-02T00:07:43;5.90;99.90
56861;DHT22;42744;51.094;3.490;2024-03-02T00:10:11;5.90;99.90
56861;DHT22;42744;51.094;3.490;2024-03-02T00:12:40;5.90;99.90
56861;DHT22;42744;51.094;3.490;2024-03-02T00:18:04;5.90;99.90
56861;DHT22;42744;51.094;3.490;2024-03-02T00:20:31;6.00;99.90
56861;DHT22;42744;51.094;3.490;2024-03-02T00:23:03;6.00;99.90
56861;DHT22;42744;51.094;3.490;2024-03-02T00:25:40;6.00;99.90
56861;DHT22;42744;51.094;3.490;2024-03-02T00:28:38;6.00;99.90
56861;DHT22;42744;51.094;3.490;2024-03-02T00:31:10;6.00;99.90
56861;DHT22;42744;51.094;3.490;2024-03-02T00:33:41;6.00;99.90
56861;DHT22;42744;51.094;3.490;2024-03-02T00:36:08;6.10;99.90
56861;DHT22;42744;51.094;3.490;2024-03-02T00:38:42;6.00;99.90
56861;DHT22;42744;51.094;3.490;2024-03-02T00:41:09;6.00;99.90
56861;DHT22;42744;51.094;3.490;2024-03-02T00:44:17;6.00;99.90
56861;DHT22;42744;51.094;3.490;2024-03-02T00:46:45;6.00;99.90
56861;DHT22;42744;51.094;3.490;2024-03-02T00:51:36;6.00;99.90
56861;DHT22;42744;51.094;3.490;2024-03-02T00:54:09;6.00;99.90
56861;DHT22;42744;51.094;3.490;2024-03-02T00:56:36;6.00;99.90
56861;DHT22;42744;51.094;3.490;2024-03-02T00:59:02;6.00;99.90
56861;DHT22;42744;51.094;3.490;2024-03-02T01:01:28;6.00;99.90
56861;DHT22;42744;51.094;3.490;2024-03-02T01:03:54;6.00;99.90
56861;DHT22;42744;51.094;3.490;2024-03-02T01:06:20;6.00;99.90
56861;DHT22;42744;51.094;3.490;2024-03-02T01:08:46;6.00;99.90
56861;DHT22;42744;51.094;3.490;2024-03-02T01:11:16;6.00;99.90
56861;DHT22;42744;51.094;3.490;2024-03-02T01:13:44;5.90;99.90
56861;DHT22;42744;51.094;3.490;2024-03-02T01:16:10;5.90;99.90
56861;DHT22;42744;51.094;3.490;2024-03-02T01:18:36;5.90;99.90
56861;DHT22;42744;51.094;3.490;2024-03-02T01:21:02;5.80;99.90
56861;DHT22;42744;51.094;3.490;2024-03-02T01:23:29;5.80;99.90
56861;DHT22;42744;51.094;3.490;2024-03-02T01:25:54;5.80;99.90
56861;DHT22;42744;51.094;3.490;2024-03-02T01:28:21;5.70;99.90
56861;DHT22;42744;51.094;3.490;2024-03-02T01:30:48;5.70;99.90
56861;DHT22;42744;51.094;3.490;2024-03-02T01:33:14;5.70;99.90
56861;DHT22;42744;51.094;3.490;2024-03-02T01:35:39;5.70;99.90
56861;DHT22;42744;51.094;3.490;2024-03-02T01:38:06;5.60;99.90
56861;DHT22;42744;51.094;3.490;2024-03-02T01:40:35;5.60;99.90
56861;DHT22;42744;51.094;3.490;2024-03-02T01:43:01;5.60;99.90
56861;DHT22;42744;51.094;3.490;2024-03-02T01:45:28;5.50;99.90
56861;DHT22;42744;51.094;3.490;2024-03-02T01:47:55;5.50;99.90
56861;DHT22;42744;51.094;3.490;2024-03-02T01:50:27;5.50;99.90
56861;DHT22;42744;51.094;3.490;2024-03-02T01:52:55;5.50;99.90
56861;DHT22;42744;51.094;3.490;2024-03-02T01:55:21;5.40;99.90
56861;DHT22;42744;51.094;3.490;2024-03-02T01:57:48;5.40;99.90
56861;DHT22;42744;51.094;3.490;2024-03-02T02:00:15;5.40;99.90
56861;DHT22;42744;51.094;3.490;2024-03-02T02:02:41;5.40;99.90
56861;DHT22;42744;51.094;3.490;2024-03-02T02:05:07;5.40;99.90
56861;DHT22;42744;51.094;3.490;2024-03-02T02:07:33;5.40;99.90
56861;DHT22;42744;51.094;3.490;2024-03-02T02:10:00;5.40;99.90
56861;DHT22;42744;51.094;3.490;2024-03-02T02:12:26;5.40;99.90
56861;DHT22;42744;51.094;3.490;2024-03-02T02:14:52;5.40;99.90
56861;DHT22;42744;51.094;3.490;2024-03-02T02:17:19;5.40;99.90
56861;DHT22;42744;51.094;3.490;2024-03-02T02:19:45;5.30;99.90
56861;DHT22;42744;51.094;3.490;2024-03-02T02:22:11;5.30;99.90
56861;DHT22;42744;51.094;3.490;2024-03-02T02:24:41;5.30;99.90
56861;DHT22;42744;51.094;3.490;2024-03-02T02:27:08;5.30;99.90
56861;DHT22;42744;51.094;3.490;2024-03-02T02:29:34;5.30;99.90
56861;DHT22;42744;51.094;3.490;2024-03-02T02:32:00;5.30;99.90
56861;DHT22;42744;51.094;3.490;2024-03-02T02:34:26;5.30;99.90
56861;DHT22;42744;51.094;3.490;2024-03-02T02:36:52;5.30;99.90
56861;DHT22;42744;51.094;3.490;2024-03-02T02:39:21;5.30;99.90
56861;DHT22;42744;51.094;3.490;2024-03-02T02:41:48;5.30;99.90
56861;DHT22;42744;51.094;3.490;2024-03-02T02:44:14;5.30;99.90
56861;DHT22;42744;51.094;3.490;2024-03-02T02:46:41;5.40;99.90
56861;DHT22;42744;51.094;3.490;2024-03-02T02:49:07;5.30;99.90
56861;DHT22;42744;51.094;3.490;2024-03-02T02:51:33;5.30;99.90
56861;DHT22;42744;51.094;3.490;2024-03-02T02:53:59;5.30;99.90
56861;DHT22;42744;51.094;3.490;2024-03-02T02:56:25;5.30;99.90
56861;DHT22;42744;51.094;3.490;2024-03-02T02:58:51;5.30;99.90
56861;DHT22;42744;51.094;3.490;2024-03-02T03:01:17;5.30;99.90
56861;DHT22;42744;51.094;3.490;2024-03-02T03:03:44;5.30;99.90
56861;DHT22;42744;51.094;3.490;2024-03-02T03:06:10;5.20;99.90
56861;DHT22;42744;51.094;3.490;2024-03-02T03:08:36;5.20;99.90
56861;DHT22;42744;51.094;3.490;2024-03-02T03:11:03;5.30;99.90
56861;DHT22;42744;51.094;3.490;2024-03-02T03:13:28;5.20;99.90
56861;DHT22;42744;51.094;3.490;2024-03-02T03:15:55;5.20;99.90
56861;DHT22;42744;51.094;3.490;2024-03-02T03:18:20;5.10;99.90
56861;DHT22;42744;51.094;3.490;2024-03-02T03:20:46;5.20;99.90
56861;DHT22;42744;51.094;3.490;2024-03-02T03:23:19;5.10;99.90
56861;DHT22;42744;51.094;3.490;2024-03-02T03:25:45;5.10;99.90
56861;DHT22;42744;51.094;3.490;2024-03-02T03:28:17;5.10;99.90
56861;DHT22;42744;51.094;3.490;2024-03-02T03:30:43;5.10;99.90
56861;DHT22;42744;51.094;3.490;2024-03-02T03:33:11;5.10;99.90
56861;DHT22;42744;51.094;3.490;2024-03-02T03:35:37;5.10;99.90
56861;DHT22;42744;51.094;3.490;2024-03-02T03:38:03;5.10;99.90
56861;DHT22;42744;51.094;3.490;2024-03-02T03:40:32;5.10;99.90
56861;DHT22;42744;51.094;3.490;2024-03-02T03:42:58;5.10;99.90
56861;DHT22;42744;51.094;3.490;2024-03-02T03:45:25;5.10;99.90
56861;DHT22;42744;51.094;3.490;2024-03-02T03:47:53;5.10;99.90
56861;DHT22;42744;51.094;3.490;2024-03-02T03:50:19;5.10;99.90
56861;DHT22;42744;51.094;3.490;2024-03-02T03:52:45;5.10;99.90
56861;DHT22;42744;51.094;3.490;2024-03-02T03:55:11;5.10;99.90
56861;DHT22;42744;51.094;3.490;2024-03-02T03:57:37;5.10;99.90
56861;DHT22;42744;51.094;3.490;2024-03-02T04:00:04;5.10;99.90
56861;DHT22;42744;51.094;3.490;2024-03-02T04:02:38;5.10;99.90
56861;DHT22;42744;51.094;3.490;2024-03-02T04:05:04;5.10;99.90
56861;DHT22;42744;51.094;3.490;2024-03-02T04:07:35;5.10;99.90
56861;DHT22;42744;51.094;3.490;2024-03-02T04:10:08;5.10;99.90
56861;DHT22;42744;51.094;3.490;2024-03-02T04:12:35;5.00;99.90
56861;DHT22;42744;51.094;3.490;2024-03-02T04:15:05;5.00;99.90
56861;DHT22;42744;51.094;3.490;2024-03-02T04:17:33;5.00;99.90
56861;DHT22;42744;51.094;3.490;2024-03-02T04:20:00;4.90;99.90
56861;DHT22;42744;51.094;3.490;2024-03-02T04:22:27;4.90;99.90
56861;DHT22;42744;51.094;3.490;2024-03-02T04:24:53;4.90;99.90
56861;DHT22;42744;51.094;3.490;2024-03-02T04:27:19;4.90;99.90
56861;DHT22;42744;51.094;3.490;2024-03-02T04:29:45;4.90;99.90
56861;DHT22;42744;51.094;3.490;2024-03-02T04:32:11;4.90;99.90
56861;DHT22;42744;51.094;3.490;2024-03-02T04:34:37;4.90;99.90
56861;DHT22;42744;51.094;3.490;2024-03-02T04:37:03;4.90;99.90
56861;DHT22;42744;51.094;3.490;2024-03-02T04:39:29;4.90;99.90
56861;DHT22;42744;51.094;3.490;2024-03-02T04:41:55;4.90;99.90
56861;DHT22;42744;51.094;3.490;2024-03-02T04:44:21;4.80;99.90
56861;DHT22;42744;51.094;3.490;2024-03-02T04:46:47;4.80;99.90
56861;DHT22;42744;51.094;3.490;2024-03-02T04:49:13;4.80;99.90
56861;DHT22;42744;51.094;3.490;2024-03-02T04:51:39;4.80;99.90
56861;DHT22;42744;51.094;3.490;2024-03-02T04:54:05;4.80;99.90
56861;DHT22;42744;51.094;3.490;2024-03-02T04:56:31;4.80;99.90
56861;DHT22;42744;51.094;3.490;2024-03-02T04:58:56;4.80;99.90
56861;DHT22;42744;51.094;3.490;2024-03-02T05:01:23;4.80;99.90
56861;DHT22;42744;51.094;3.490;2024-03-02T05:03:48;4.80;99.90
56861;DHT22;42744;51.094;3.490;2024-03-02T05:06:14;4.80;99.90
56861;DHT22;42744;51.094;3.490;2024-03-02T05:08:40;4.80;99.90
56861;DHT22;42744;51.094;3.490;2024-03-02T05:11:06;4.80;99.90
56861;DHT22;42744;51.094;3.490;2024-03-02T05:13:51;4.80;99.90
56861;DHT22;42744;51.094;3.490;2024-03-02T05:16:17;4.80;99.90
56861;DHT22;42744;51.094;3.490;2024-03-02T05:18:43;4.80;99.90
56861;DHT22;42744;51.094;3.490;2024-03-02T05:21:09;4.80;99.90
56861;DHT22;42744;51.094;3.490;2024-03-02T05:23:35;4.80;99.90
56861;DHT22;42744;51.094;3.490;2024-03-02T05:26:01;4.70;99.90
56861;DHT22;42744;51.094;3.490;2024-03-02T05:28:27;4.80;99.90
56861;DHT22;42744;51.094;3.490;2024-03-02T05:30:54;4.80;99.90
56861;DHT22;42744;51.094;3.490;2024-03-02T05:33:20;4.70;99.90
56861;DHT22;42744;51.094;3.490;2024-03-02T05:35:48;4.70;99.90
56861;DHT22;42744;51.094;3.490;2024-03-02T05:38:15;4.70;99.90
56861;DHT22;42744;51.094;3.490;2024-03-02T05:40:41;4.70;99.90
56861;DHT22;42744;51.094;3.490;2024-03-02T05:43:07;4.70;99.90
56861;DHT22;42744;51.094;3.490;2024-03-02T05:45:33;4.80;99.90
56861;DHT22;42744;51.094;3.490;2024-03-02T05:47:59;4.70;99.90
56861;DHT22;42744;51.094;3.490;2024-03-02T05:50:25;4.70;99.90
56861;DHT22;42744;51.094;3.490;2024-03-02T05:52:52;4.70;99.90
56861;DHT22;42744;51.094;3.490;2024-03-02T05:55:18;4.70;99.90
56861;DHT22;42744;51.094;3.490;2024-03-02T05:57:44;4.70;99.90
56861;DHT22;42744;51.094;3.490;2024-03-02T06:00:10;4.60;99.90
56861;DHT22;42744;51.094;3.490;2024-03-02T06:02:41;4.60;99.90
56861;DHT22;42744;51.094;3.490;2024-03-02T06:05:07;4.60;99.90
56861;DHT22;42744;51.094;3.490;2024-03-02T06:07:33;4.60;99.90
56861;DHT22;42744;51.094;3.490;2024-03-02T06:09:59;4.60;99.90
56861;DHT22;42744;51.094;3.490;2024-03-02T06:12:25;4.60;99.90
56861;DHT22;42744;51.094;3.490;2024-03-02T06:14:51;4.50;99.90
56861;DHT22;42744;51.094;3.490;2024-03-02T06:17:17;4.50;99.90
56861;DHT22;42744;51.094;3.490;2024-03-02T06:19:43;4.50;99.90
56861;DHT22;42744;51.094;3.490;2024-03-02T06:22:09;4.50;99.90
56861;DHT22;42744;51.094;3.490;2024-03-02T06:24:36;4.60;99.90
56861;DHT22;42744;51.094;3.490;2024-03-02T06:27:03;4.60;99.90
56861;DHT22;42744;51.094;3.490;2024-03-02T06:29:32;4.60;99.90
56861;DHT22;42744;51.094;3.490;2024-03-02T06:31:59;4.50;99.90
56861;DHT22;42744;51.094;3.490;2024-03-02T06:34:26;4.50;99.90
56861;DHT22;42744;51.094;3.490;2024-03-02T06:36:51;4.60;99.90
56861;DHT22;42744;51.094;3.490;2024-03-02T06:39:17;4.50;99.90
56861;DHT22;42744;51.094;3.490;2024-03-02T06:41:43;4.50;99.90
56861;DHT22;42744;51.094;3.490;2024-03-02T06:44:09;4.50;99.90
56861;DHT22;42744;51.094;3.490;2024-03-02T06:46:35;4.50;99.90
56861;DHT22;42744;51.094;3.490;2024-03-02T06:49:01;4.60;99.90
56861;DHT22;42744;51.094;3.490;2024-03-02T06:51:29;4.60;99.90
56861;DHT22;42744;51.094;3.490;2024-03-02T06:53:55;4.60;99.90
56861;DHT22;42744;51.094;3.490;2024-03-02T06:56:22;4.70;99.90
56861;DHT22;42744;51.094;3.490;2024-03-02T06:58:48;4.70;99.90
56861;DHT22;42744;51.094;3.490;2024-03-02T07:01:13;4.70;99.90
56861;DHT22;42744;51.094;3.490;2024-03-02T07:03:40;4.70;99.90
56861;DHT22;42744;51.094;3.490;2024-03-02T07:06:05;4.80;99.90
56861;DHT22;42744;51.094;3.490;2024-03-02T07:08:31;4.70;99.90
56861;DHT22;42744;51.094;3.490;2024-03-02T07:10:58;4.80;99.90
56861;DHT22;42744;51.094;3.490;2024-03-02T07:13:23;4.80;99.90
56861;DHT22;42744;51.094;3.490;2024-03-02T07:15:49;4.80;99.90
56861;DHT22;42744;51.094;3.490;2024-03-02T07:18:34;4.90;99.90
56861;DHT22;42744;51.094;3.490;2024-03-02T07:21:05;4.90;99.90
56861;DHT22;42744;51.094;3.490;2024-03-02T07:23:31;4.90;99.90
56861;DHT22;42744;51.094;3.490;2024-03-02T07:25:57;5.00;99.90
56861;DHT22;42744;51.094;3.490;2024-03-02T07:28:28;5.00;99.90
56861;DHT22;42744;51.094;3.490;2024-03-02T07:31:01;5.00;99.90
56861;DHT22;42744;51.094;3.490;2024-03-02T07:33:27;5.10;99.90
56861;DHT22;42744;51.094;3.490;2024-03-02T07:35:57;5.10;99.90
56861;DHT22;42744;51.094;3.490;2024-03-02T07:38:23;5.20;99.90
56861;DHT22;42744;51.094;3.490;2024-03-02T07:40:49;5.20;99.90
56861;DHT22;42744;51.094;3.490;2024-03-02T07:43:19;5.30;99.90
56861;DHT22;42744;51.094;3.490;2024-03-02T07:45:46;5.30;99.90
56861;DHT22;42744;51.094;3.490;2024-03-02T07:48:12;5.30;99.90
56861;DHT22;42744;51.094;3.490;2024-03-02T07:50:38;5.30;99.90
56861;DHT22;42744;51.094;3.490;2024-03-02T07:53:05;5.40;99.90
56861;DHT22;42744;51.094;3.490;2024-03-02T07:55:31;5.40;99.90
56861;DHT22;42744;51.094;3.490;2024-03-02T07:57:57;5.40;99.90
56861;DHT22;42744;51.094;3.490;2024-03-02T08:00:24;5.40;99.90
56861;DHT22;42744;51.094;3.490;2024-03-02T08:02:52;5.40;99.90
56861;DHT22;42744;51.094;3.490;2024-03-02T08:05:18;5.50;99.90
56861;DHT22;42744;51.094;3.490;2024-03-02T08:07:47;5.50;99.90
56861;DHT22;42744;51.094;3.490;2024-03-02T08:10:14;5.60;99.90
56861;DHT22;42744;51.094;3.490;2024-03-02T08:12:40;5.60;99.90
56861;DHT22;42744;51.094;3.490;2024-03-02T08:15:06;5.70;99.90
56861;DHT22;42744;51.094;3.490;2024-03-02T08:17:32;5.70;99.90
56861;DHT22;42744;51.094;3.490;2024-03-02T08:19:58;5.80;99.90
56861;DHT22;42744;51.094;3.490;2024-03-02T08:22:24;5.90;99.90
56861;DHT22;42744;51.094;3.490;2024-03-02T08:24:54;6.00;99.90
56861;DHT22;42744;51.094;3.490;2024-03-02T08:27:20;6.00;99.90
56861;DHT22;42744;51.094;3.490;2024-03-02T08:29:46;6.10;99.90
56861;DHT22;42744;51.094;3.490;2024-03-02T08:32:12;6.20;99.90
56861;DHT22;42744;51.094;3.490;2024-03-02T08:34:38;6.30;99.90
56861;DHT22;42744;51.094;3.490;2024-03-02T08:37:04;6.30;99.90
56861;DHT22;42744;51.094;3.490;2024-03-02T08:39:31;6.40;99.90
56861;DHT22;42744;51.094;3.490;2024-03-02T08:41:57;6.40;99.90
56861;DHT22;42744;51.094;3.490;2024-03-02T08:44:23;6.40;99.90
56861;DHT22;42744;51.094;3.490;2024-03-02T08:46:49;6.50;99.90
56861;DHT22;42744;51.094;3.490;2024-03-02T08:49:15;6.50;99.90
56861;DHT22;42744;51.094;3.490;2024-03-02T08:51:40;6.60;99.90
56861;DHT22;42744;51.094;3.490;2024-03-02T08:54:07;6.50;99.90
56861;DHT22;42744;51.094;3.490;2024-03-02T08:56:36;6.60;99.90
56861;DHT22;42744;51.094;3.490;2024-03-02T08:59:05;6.70;99.90
56861;DHT22;42744;51.094;3.490;2024-03-02T09:01:31;6.80;99.90
56861;DHT22;42744;51.094;3.490;2024-03-02T09:03:57;6.90;99.90
56861;DHT22;42744;51.094;3.490;2024-03-02T09:06:22;7.00;99.90
56861;DHT22;42744;51.094;3.490;2024-03-02T09:08:49;7.10;99.90
56861;DHT22;42744;51.094;3.490;2024-03-02T09:11:17;7.10;99.90
56861;DHT22;42744;51.094;3.490;2024-03-02T09:13:43;7.20;99.90
56861;DHT22;42744;51.094;3.490;2024-03-02T09:16:10;7.20;99.90
56861;DHT22;42744;51.094;3.490;2024-03-02T09:18:36;7.30;99.90
56861;DHT22;42744;51.094;3.490;2024-03-02T09:21:03;7.40;99.90
56861;DHT22;42744;51.094;3.490;2024-03-02T09:23:30;7.40;99.90
56861;DHT22;42744;51.094;3.490;2024-03-02T09:25:56;7.40;99.90
56861;DHT22;42744;51.094;3.490;2024-03-02T09:28:22;7.40;99.90
56861;DHT22;42744;51.094;3.490;2024-03-02T09:30:48;7.50;99.90
56861;DHT22;42744;51.094;3.490;2024-03-02T09:33:14;7.50;99.90
56861;DHT22;42744;51.094;3.490;2024-03-02T09:35:40;7.70;99.90
56861;DHT22;42744;51.094;3.490;2024-03-02T09:38:06;7.90;99.90
56861;DHT22;42744;51.094;3.490;2024-03-02T09:40:32;8.30;99.90
56861;DHT22;42744;51.094;3.490;2024-03-02T09:42:58;8.70;99.90
56861;DHT22;42744;51.094;3.490;2024-03-02T09:45:26;9.00;99.90
56861;DHT22;42744;51.094;3.490;2024-03-02T09:47:52;9.10;99.90
56861;DHT22;42744;51.094;3.490;2024-03-02T09:50:18;9.10;99.90
56861;DHT22;42744;51.094;3.490;2024-03-02T09:52:48;9.30;99.90
56861;DHT22;42744;51.094;3.490;2024-03-02T09:55:15;9.40;99.90
56861;DHT22;42744;51.094;3.490;2024-03-02T09:57:42;9.40;99.90
56861;DHT22;42744;51.094;3.490;2024-03-02T10:00:09;9.60;99.90
56861;DHT22;42744;51.094;3.490;2024-03-02T10:02:43;9.90;99.90
56861;DHT22;42744;51.094;3.490;2024-03-02T10:05:10;10.20;99.90
56861;DHT22;42744;51.094;3.490;2024-03-02T10:07:36;10.60;99.90
56861;DHT22;42744;51.094;3.490;2024-03-02T10:10:15;10.60;99.90
56861;DHT22;42744;51.094;3.490;2024-03-02T10:12:41;10.70;99.90
56861;DHT22;42744;51.094;3.490;2024-03-02T10:15:08;10.80;99.90
56861;DHT22;42744;51.094;3.490;2024-03-02T10:17:35;10.90;99.90
56861;DHT22;42744;51.094;3.490;2024-03-02T10:20:27;11.10;99.90
56861;DHT22;42744;51.094;3.490;2024-03-02T10:23:12;10.80;99.90
56861;DHT22;42744;51.094;3.490;2024-03-02T10:25:38;10.70;99.90
56861;DHT22;42744;51.094;3.490;2024-03-02T10:28:05;10.70;99.90
56861;DHT22;42744;51.094;3.490;2024-03-02T10:30:32;10.60;99.90
56861;DHT22;42744;51.094;3.490;2024-03-02T10:32:58;10.50;99.90
56861;DHT22;42744;51.094;3.490;2024-03-02T10:35:26;10.40;99.90
56861;DHT22;42744;51.094;3.490;2024-03-02T10:37:53;10.20;99.90
56861;DHT22;42744;51.094;3.490;2024-03-02T10:40:21;10.20;99.90
56861;DHT22;42744;51.094;3.490;2024-03-02T10:42:48;10.30;99.90
56861;DHT22;42744;51.094;3.490;2024-03-02T10:45:16;10.40;99.90
56861;DHT22;42744;51.094;3.490;2024-03-02T10:47:46;10.30;99.90
56861;DHT22;42744;51.094;3.490;2024-03-02T10:50:13;10.20;99.90
56861;DHT22;42744;51.094;3.490;2024-03-02T10:52:39;10.10;99.90
56861;DHT22;42744;51.094;3.490;2024-03-02T10:55:06;10.00;99.90
56861;DHT22;42744;51.094;3.490;2024-03-02T10:57:45;9.90;99.90
56861;DHT22;42744;51.094;3.490;2024-03-02T11:00:15;9.90;99.90
56861;DHT22;42744;51.094;3.490;2024-03-02T11:02:54;9.90;99.90
56861;DHT22;42744;51.094;3.490;2024-03-02T11:05:28;9.90;99.90
56861;DHT22;42744;51.094;3.490;2024-03-02T11:08:06;9.90;99.90
56861;DHT22;42744;51.094;3.490;2024-03-02T11:10:42;9.90;99.90
56861;DHT22;42744;51.094;3.490;2024-03-02T11:13:12;9.90;99.90
56861;DHT22;42744;51.094;3.490;2024-03-02T11:15:40;9.90;99.90
56861;DHT22;42744;51.094;3.490;2024-03-02T11:18:09;10.00;99.90
56861;DHT22;42744;51.094;3.490;2024-03-02T11:20:40;10.00;99.90
56861;DHT22;42744;51.094;3.490;2024-03-02T11:23:10;10.10;99.90
56861;DHT22;42744;51.094;3.490;2024-03-02T11:25:36;10.10;99.90
56861;DHT22;42744;51.094;3.490;2024-03-02T11:28:04;10.30;99.90
56861;DHT22;42744;51.094;3.490;2024-03-02T11:33:07;10.40;99.90
56861;DHT22;42744;51.094;3.490;2024-03-02T11:35:37;10.40;99.90
56861;DHT22;42744;51.094;3.490;2024-03-02T11:38:03;10.40;99.90
56861;DHT22;42744;51.094;3.490;2024-03-02T11:40:30;10.40;99.90
56861;DHT22;42744;51.094;3.490;2024-03-02T11:42:59;10.40;99.90
56861;DHT22;42744;51.094;3.490;2024-03-02T11:45:26;10.40;99.90
56861;DHT22;42744;51.094;3.490;2024-03-02T11:47:57;10.40;99.90
56861;DHT22;42744;51.094;3.490;2024-03-02T11:50:49;10.50;99.90
56861;DHT22;42744;51.094;3.490;2024-03-02T11:53:16;10.40;99.90
56861;DHT22;42744;51.094;3.490;2024-03-02T11:55:42;10.30;99.90
56861;DHT22;42744;51.094;3.490;2024-03-02T11:58:12;10.30;99.90
56861;DHT22;42744;51.094;3.490;2024-03-02T12:00:39;10.40;99.90
56861;DHT22;42744;51.094;3.490;2024-03-02T12:03:07;10.50;99.90
56861;DHT22;42744;51.094;3.490;2024-03-02T12:05:33;10.50;99.90
56861;DHT22;42744;51.094;3.490;2024-03-02T12:08:02;10.60;99.90
56861;DHT22;42744;51.094;3.490;2024-03-02T12:10:29;10.60;99.90
56861;DHT22;42744;51.094;3.490;2024-03-02T12:13:03;10.60;99.90
56861;DHT22;42744;51.094;3.490;2024-03-02T12:15:34;10.60;99.90
56861;DHT22;42744;51.094;3.490;2024-03-02T12:18:03;10.50;99.90
56861;DHT22;42744;51.094;3.490;2024-03-02T12:20:31;10.50;99.90
56861;DHT22;42744;51.094;3.490;2024-03-02T12:23:04;10.40;99.90
56861;DHT22;42744;51.094;3.490;2024-03-02T12:25:31;10.40;99.90
56861;DHT22;42744;51.094;3.490;2024-03-02T12:28:00;10.40;99.90
56861;DHT22;42744;51.094;3.490;2024-03-02T12:30:30;10.30;99.90
56861;DHT22;42744;51.094;3.490;2024-03-02T12:32:58;10.20;99.90
56861;DHT22;42744;51.094;3.490;2024-03-02T12:35:25;10.10;99.90
56861;DHT22;42744;51.094;3.490;2024-03-02T12:37:53;10.00;99.90
56861;DHT22;42744;51.094;3.490;2024-03-02T12:40:21;9.90;99.90
56861;DHT22;42744;51.094;3.490;2024-03-02T12:42:48;9.80;99.90
56861;DHT22;42744;51.094;3.490;2024-03-02T12:45:15;9.80;99.90
56861;DHT22;42744;51.094;3.490;2024-03-02T12:47:42;9.70;99.90
56861;DHT22;42744;51.094;3.490;2024-03-02T12:50:09;9.70;99.90
56861;DHT22;42744;51.094;3.490;2024-03-02T12:52:35;9.60;99.90
56861;DHT22;42744;51.094;3.490;2024-03-02T12:55:05;9.60;99.90
56861;DHT22;42744;51.094;3.490;2024-03-02T12:57:32;9.60;99.90
56861;DHT22;42744;51.094;3.490;2024-03-02T13:00:05;9.60;99.90
56861;DHT22;42744;51.094;3.490;2024-03-02T13:02:42;9.50;99.90
56861;DHT22;42744;51.094;3.490;2024-03-02T13:05:08;9.50;99.90
56861;DHT22;42744;51.094;3.490;2024-03-02T13:07:40;9.50;99.90
56861;DHT22;42744;51.094;3.490;2024-03-02T13:10:10;9.40;99.90
56861;DHT22;42744;51.094;3.490;2024-03-02T13:12:38;9.40;99.90
56861;DHT22;42744;51.094;3.490;2024-03-02T13:15:04;9.40;99.90
56861;DHT22;42744;51.094;3.490;2024-03-02T13:17:31;9.40;99.90
56861;DHT22;42744;51.094;3.490;2024-03-02T13:19:59;9.30;99.90
56861;DHT22;42744;51.094;3.490;2024-03-02T13:22:26;9.40;99.90
56861;DHT22;42744;51.094;3.490;2024-03-02T13:24:52;9.40;99.90
56861;DHT22;42744;51.094;3.490;2024-03-02T13:27:20;9.40;99.90
56861;DHT22;42744;51.094;3.490;2024-03-02T13:29:49;9.50;99.90
56861;DHT22;42744;51.094;3.490;2024-03-02T13:32:16;9.40;99.90
56861;DHT22;42744;51.094;3.490;2024-03-02T13:34:43;9.40;99.90
56861;DHT22;42744;51.094;3.490;2024-03-02T13:37:09;9.40;99.90
56861;DHT22;42744;51.094;3.490;2024-03-02T13:39:35;9.40;99.90
56861;DHT22;42744;51.094;3.490;2024-03-02T13:42:10;9.40;99.90
56861;DHT22;42744;51.094;3.490;2024-03-02T13:44:37;9.50;99.90
56861;DHT22;42744;51.094;3.490;2024-03-02T13:47:04;9.60;99.90
56861;DHT22;42744;51.094;3.490;2024-03-02T13:49:31;9.70;99.90
56861;DHT22;42744;51.094;3.490;2024-03-02T13:52:05;9.70;99.90
56861;DHT22;42744;51.094;3.490;2024-03-02T13:54:44;9.70;99.90
56861;DHT22;42744;51.094;3.490;2024-03-02T13:57:11;9.80;99.90
56861;DHT22;42744;51.094;3.490;2024-03-02T13:59:38;9.90;99.90
56861;DHT22;42744;51.094;3.490;2024-03-02T14:02:05;9.90;99.90
56861;DHT22;42744;51.094;3.490;2024-03-02T14:04:33;10.00;99.90
56861;DHT22;42744;51.094;3.490;2024-03-02T14:06:59;10.10;99.90
56861;DHT22;42744;51.094;3.490;2024-03-02T14:09:26;10.30;99.90
56861;DHT22;42744;51.094;3.490;2024-03-02T14:11:53;10.30;99.90
56861;DHT22;42744;51.094;3.490;2024-03-02T14:14:19;10.20;99.90
56861;DHT22;42744;51.094;3.490;2024-03-02T14:16:45;10.20;99.90
56861;DHT22;42744;51.094;3.490;2024-03-02T14:19:12;10.20;99.90
56861;DHT22;42744;51.094;3.490;2024-03-02T14:21:41;10.20;99.90
56861;DHT22;42744;51.094;3.490;2024-03-02T14:24:07;10.10;99.90
56861;DHT22;42744;51.094;3.490;2024-03-02T14:26:33;10.10;99.90
56861;DHT22;42744;51.094;3.490;2024-03-02T14:28:59;10.10;99.90
56861;DHT22;42744;51.094;3.490;2024-03-02T14:31:28;10.00;99.90
56861;DHT22;42744;51.094;3.490;2024-03-02T14:33:54;10.00;99.90
56861;DHT22;42744;51.094;3.490;2024-03-02T14:36:20;10.10;99.90
56861;DHT22;42744;51.094;3.490;2024-03-02T14:38:46;10.10;99.90
56861;DHT22;42744;51.094;3.490;2024-03-02T14:41:13;10.10;99.90
56861;DHT22;42744;51.094;3.490;2024-03-02T14:43:40;10.10;99.90
56861;DHT22;42744;51.094;3.490;2024-03-02T14:46:06;10.20;99.90
56861;DHT22;42744;51.094;3.490;2024-03-02T14:48:36;10.10;99.90
56861;DHT22;42744;51.094;3.490;2024-03-02T14:51:02;10.20;99.90
56861;DHT22;42744;51.094;3.490;2024-03-02T14:53:28;10.30;99.90
56861;DHT22;42744;51.094;3.490;2024-03-02T14:55:55;10.40;99.90
56861;DHT22;42744;51.094;3.490;2024-03-02T14:58:21;10.30;99.90
56861;DHT22;42744;51.094;3.490;2024-03-02T15:00:47;10.40;99.90
56861;DHT22;42744;51.094;3.490;2024-03-02T15:03:13;10.40;99.90
56861;DHT22;42744;51.094;3.490;2024-03-02T15:05:39;10.50;99.90
56861;DHT22;42744;51.094;3.490;2024-03-02T15:08:06;10.50;99.90
56861;DHT22;42744;51.094;3.490;2024-03-02T15:10:32;10.40;99.90
56861;DHT22;42744;51.094;3.490;2024-03-02T15:12:58;10.40;99.90
56861;DHT22;42744;51.094;3.490;2024-03-02T15:15:24;10.40;99.90
56861;DHT22;42744;51.094;3.490;2024-03-02T15:17:51;10.40;99.90
56861;DHT22;42744;51.094;3.490;2024-03-02T15:20:18;10.40;99.90
56861;DHT22;42744;51.094;3.490;2024-03-02T15:22:46;10.40;99.90
56861;DHT22;42744;51.094;3.490;2024-03-02T15:25:12;10.40;99.90
56861;DHT22;42744;51.094;3.490;2024-03-02T15:27:38;10.50;99.90
56861;DHT22;42744;51.094;3.490;2024-03-02T15:30:06;10.50;99.90
56861;DHT22;42744;51.094;3.490;2024-03-02T15:32:32;10.40;99.90
56861;DHT22;42744;51.094;3.490;2024-03-02T15:35:00;10.50;99.90
56861;DHT22;42744;51.094;3.490;2024-03-02T15:37:26;10.40;99.90
56861;DHT22;42744;51.094;3.490;2024-03-02T15:39:52;10.40;99.90
56861;DHT22;42744;51.094;3.490;2024-03-02T15:42:18;10.40;99.90
56861;DHT22;42744;51.094;3.490;2024-03-02T15:44:44;10.30;99.90
56861;DHT22;42744;51.094;3.490;2024-03-02T15:47:11;10.30;99.90
56861;DHT22;42744;51.094;3.490;2024-03-02T15:49:36;10.20;99.90
56861;DHT22;42744;51.094;3.490;2024-03-02T15:52:02;10.20;99.90